Terminal Aerodrome Forecast
Issued by NWS

Current Version | Previous Version | Graphics & Text | Print | Product List | Glossary On
Versions: 1 2 3 4 5 6 7 8 9 10 11 12 13 14 15 16 17 18 19 20 21
000
FTUS41 KPBZ 021120
TAFHLG
TAF
KHLG 021120Z 0212/0312 00000KT 4SM BR SCT045 SCT250
      TEMPO 0212/0213 2SM BR
     FM021400 32005KT P6SM SCT050
     FM030900 03003KT 4SM BR SCT250=

USA.gov is the U.S. government's official web portal to all federal, state and local government web resources and services.